KHOB/HOB METAR and TAF weather

Enter ICAO airport designator
Station Type Date Time Source
KHOB METAR 2022/12/08 12:50 UTC NOAA

KHOB 081250Z 20004KT 1/8SM FG OVC002 07/07 A3020


Station Type Date Time Source
KHOB Decoded METAR 2022/12/08 12:50 UTC NOAA

Hobbs / Lea County, NM, United States (KHOB) 32-41N 103-13W
Dec 08, 2022 - 07:50 AM EST / 2022.12.08 1250 UTC
Wind: from the SSW (200 degrees) at 5 MPH (4 KT):0
Visibility: 1/8 mile(s):0
Sky conditions: overcast
Weather: fog
Temperature: 44 F (7 C)
Dew Point: 44 F (7 C)
Relative Humidity: 100%
Pressure (altimeter): 30.2 in. Hg (1022 hPa)
ob: KHOB 081250Z 20004KT 1/8SM FG OVC002 07/07 A3020
cycle: 13

Station Type Date Time Source
KHOB TAF 2022/12/08 12:30 UTC NOAA

TAF KHOB 081127Z 0812/0912 VRB05KT 1/2SM FG BKN005
TEMPO 0812/0814 1/4SM FG BKN001
FM081600 26010KT P6SM SCT250

Example: see airport list